sensor_id;sensor_type;location;lat;lon;timestamp;P1;durP1;ratioP1;P2;durP2;ratioP2
61391;SDS011;47261;52.892;5.738;2023-02-18T00:01:57;21.00;;;3.63;;
61391;SDS011;47261;52.892;5.738;2023-02-18T00:04:23;24.50;;;3.83;;
61391;SDS011;47261;52.892;5.738;2023-02-18T00:06:48;22.58;;;3.70;;
61391;SDS011;47261;52.892;5.738;2023-02-18T00:09:14;22.27;;;4.57;;
61391;SDS011;47261;52.892;5.738;2023-02-18T00:11:40;16.67;;;3.90;;
61391;SDS011;47261;52.892;5.738;2023-02-18T00:14:07;21.03;;;3.67;;
61391;SDS011;47261;52.892;5.738;2023-02-18T00:16:35;26.58;;;4.15;;
61391;SDS011;47261;52.892;5.738;2023-02-18T00:19:03;30.97;;;5.17;;
61391;SDS011;47261;52.892;5.738;2023-02-18T00:21:31;25.35;;;4.43;;
61391;SDS011;47261;52.892;5.738;2023-02-18T00:23:58;21.30;;;3.90;;
61391;SDS011;47261;52.892;5.738;2023-02-18T00:26:24;17.30;;;3.72;;
61391;SDS011;47261;52.892;5.738;2023-02-18T00:28:51;17.27;;;3.37;;
61391;SDS011;47261;52.892;5.738;2023-02-18T00:31:18;15.82;;;3.05;;
61391;SDS011;47261;52.892;5.738;2023-02-18T00:33:55;29.08;;;5.20;;
61391;SDS011;47261;52.892;5.738;2023-02-18T00:36:22;25.02;;;5.85;;
61391;SDS011;47261;52.892;5.738;2023-02-18T00:38:49;24.30;;;5.78;;
61391;SDS011;47261;52.892;5.738;2023-02-18T00:41:16;19.70;;;4.77;;
61391;SDS011;47261;52.892;5.738;2023-02-18T00:43:43;26.92;;;5.72;;
61391;SDS011;47261;52.892;5.738;2023-02-18T00:46:08;22.67;;;6.05;;
61391;SDS011;47261;52.892;5.738;2023-02-18T00:48:35;16.60;;;3.97;;
61391;SDS011;47261;52.892;5.738;2023-02-18T00:51:01;19.02;;;4.72;;
61391;SDS011;47261;52.892;5.738;2023-02-18T00:53:28;13.32;;;3.65;;
61391;SDS011;47261;52.892;5.738;2023-02-18T00:55:54;11.07;;;3.35;;
61391;SDS011;47261;52.892;5.738;2023-02-18T00:58:20;18.07;;;3.73;;
61391;SDS011;47261;52.892;5.738;2023-02-18T01:00:46;20.33;;;3.60;;
61391;SDS011;47261;52.892;5.738;2023-02-18T01:03:12;20.30;;;3.90;;
61391;SDS011;47261;52.892;5.738;2023-02-18T01:05:38;19.10;;;3.70;;
61391;SDS011;47261;52.892;5.738;2023-02-18T01:08:04;13.38;;;3.58;;
61391;SDS011;47261;52.892;5.738;2023-02-18T01:10:30;23.98;;;5.18;;
61391;SDS011;47261;52.892;5.738;2023-02-18T01:12:56;25.10;;;5.20;;
61391;SDS011;47261;52.892;5.738;2023-02-18T01:15:22;20.67;;;5.80;;
61391;SDS011;47261;52.892;5.738;2023-02-18T01:17:48;17.00;;;3.92;;
61391;SDS011;47261;52.892;5.738;2023-02-18T01:20:16;8.82;;;1.98;;
61391;SDS011;47261;52.892;5.738;2023-02-18T01:22:43;23.23;;;4.23;;
61391;SDS011;47261;52.892;5.738;2023-02-18T01:25:09;16.67;;;3.67;;
61391;SDS011;47261;52.892;5.738;2023-02-18T01:27:36;11.18;;;2.72;;
61391;SDS011;47261;52.892;5.738;2023-02-18T01:30:05;9.80;;;2.53;;
61391;SDS011;47261;52.892;5.738;2023-02-18T01:32:36;13.35;;;2.38;;
61391;SDS011;47261;52.892;5.738;2023-02-18T01:35:02;16.05;;;3.85;;
61391;SDS011;47261;52.892;5.738;2023-02-18T01:37:29;15.70;;;4.72;;
61391;SDS011;47261;52.892;5.738;2023-02-18T01:39:55;17.73;;;3.07;;
61391;SDS011;47261;52.892;5.738;2023-02-18T01:42:22;16.50;;;4.33;;
61391;SDS011;47261;52.892;5.738;2023-02-18T01:44:50;16.53;;;4.53;;
61391;SDS011;47261;52.892;5.738;2023-02-18T01:47:16;21.15;;;4.50;;
61391;SDS011;47261;52.892;5.738;2023-02-18T01:49:43;16.70;;;3.10;;
61391;SDS011;47261;52.892;5.738;2023-02-18T01:52:17;18.90;;;3.42;;
61391;SDS011;47261;52.892;5.738;2023-02-18T01:54:49;15.03;;;3.50;;
61391;SDS011;47261;52.892;5.738;2023-02-18T01:57:21;16.38;;;4.00;;
61391;SDS011;47261;52.892;5.738;2023-02-18T01:59:52;15.60;;;3.28;;
61391;SDS011;47261;52.892;5.738;2023-02-18T02:02:35;12.18;;;3.63;;
61391;SDS011;47261;52.892;5.738;2023-02-18T02:05:03;16.42;;;3.80;;
61391;SDS011;47261;52.892;5.738;2023-02-18T02:07:29;8.97;;;1.93;;
61391;SDS011;47261;52.892;5.738;2023-02-18T02:09:55;13.85;;;2.03;;
61391;SDS011;47261;52.892;5.738;2023-02-18T02:17:54;6.72;;;1.67;;
61391;SDS011;47261;52.892;5.738;2023-02-18T02:34:43;12.05;;;4.15;;
61391;SDS011;47261;52.892;5.738;2023-02-18T02:37:23;56.35;;;7.18;;
61391;SDS011;47261;52.892;5.738;2023-02-18T02:40:11;19.70;;;5.77;;
61391;SDS011;47261;52.892;5.738;2023-02-18T02:53:33;25.97;;;9.67;;
61391;SDS011;47261;52.892;5.738;2023-02-18T02:56:00;27.40;;;10.23;;
61391;SDS011;47261;52.892;5.738;2023-02-18T02:58:26;31.95;;;7.43;;
61391;SDS011;47261;52.892;5.738;2023-02-18T03:01:05;31.07;;;7.77;;
61391;SDS011;47261;52.892;5.738;2023-02-18T03:07:07;33.63;;;10.15;;
61391;SDS011;47261;52.892;5.738;2023-02-18T03:13:06;36.00;;;10.97;;
61391;SDS011;47261;52.892;5.738;2023-02-18T03:18:42;39.28;;;11.82;;
61391;SDS011;47261;52.892;5.738;2023-02-18T03:21:16;38.67;;;11.98;;
61391;SDS011;47261;52.892;5.738;2023-02-18T03:23:48;28.75;;;11.07;;
61391;SDS011;47261;52.892;5.738;2023-02-18T03:26:21;40.13;;;12.80;;
61391;SDS011;47261;52.892;5.738;2023-02-18T03:28:48;28.17;;;10.57;;
61391;SDS011;47261;52.892;5.738;2023-02-18T03:31:18;32.88;;;12.55;;
61391;SDS011;47261;52.892;5.738;2023-02-18T03:33:47;33.53;;;12.02;;
61391;SDS011;47261;52.892;5.738;2023-02-18T03:36:17;41.00;;;13.18;;
61391;SDS011;47261;52.892;5.738;2023-02-18T03:39:04;29.67;;;11.10;;
61391;SDS011;47261;52.892;5.738;2023-02-18T03:41:45;32.28;;;12.20;;
61391;SDS011;47261;52.892;5.738;2023-02-18T03:44:11;50.20;;;14.05;;
61391;SDS011;47261;52.892;5.738;2023-02-18T03:46:38;42.53;;;13.75;;
61391;SDS011;47261;52.892;5.738;2023-02-18T03:49:07;38.85;;;17.40;;
61391;SDS011;47261;52.892;5.738;2023-02-18T03:51:33;41.27;;;14.50;;
61391;SDS011;47261;52.892;5.738;2023-02-18T03:53:59;37.08;;;13.95;;
61391;SDS011;47261;52.892;5.738;2023-02-18T03:56:25;35.80;;;15.93;;
61391;SDS011;47261;52.892;5.738;2023-02-18T03:58:50;35.25;;;13.73;;
61391;SDS011;47261;52.892;5.738;2023-02-18T04:01:16;47.97;;;13.37;;
61391;SDS011;47261;52.892;5.738;2023-02-18T04:03:42;46.78;;;14.80;;
61391;SDS011;47261;52.892;5.738;2023-02-18T04:06:08;32.53;;;15.43;;
61391;SDS011;47261;52.892;5.738;2023-02-18T04:08:34;43.25;;;15.70;;
61391;SDS011;47261;52.892;5.738;2023-02-18T04:10:59;30.65;;;15.50;;
61391;SDS011;47261;52.892;5.738;2023-02-18T04:13:25;40.63;;;14.23;;
61391;SDS011;47261;52.892;5.738;2023-02-18T04:15:51;42.85;;;12.68;;
61391;SDS011;47261;52.892;5.738;2023-02-18T04:18:17;40.97;;;15.93;;
61391;SDS011;47261;52.892;5.738;2023-02-18T04:20:43;39.33;;;13.68;;
61391;SDS011;47261;52.892;5.738;2023-02-18T04:23:10;58.67;;;20.43;;
61391;SDS011;47261;52.892;5.738;2023-02-18T04:25:36;39.33;;;17.05;;
61391;SDS011;47261;52.892;5.738;2023-02-18T04:28:02;37.83;;;14.15;;
61391;SDS011;47261;52.892;5.738;2023-02-18T04:30:28;56.77;;;16.00;;
61391;SDS011;47261;52.892;5.738;2023-02-18T04:32:54;46.10;;;20.35;;
61391;SDS011;47261;52.892;5.738;2023-02-18T04:35:19;42.30;;;17.27;;
61391;SDS011;47261;52.892;5.738;2023-02-18T04:37:45;45.67;;;20.60;;
61391;SDS011;47261;52.892;5.738;2023-02-18T04:40:11;53.03;;;13.83;;
61391;SDS011;47261;52.892;5.738;2023-02-18T04:42:36;50.65;;;17.90;;
61391;SDS011;47261;52.892;5.738;2023-02-18T04:45:02;46.93;;;20.10;;
61391;SDS011;47261;52.892;5.738;2023-02-18T04:47:28;49.17;;;18.73;;
61391;SDS011;47261;52.892;5.738;2023-02-18T04:49:54;62.07;;;24.60;;
61391;SDS011;47261;52.892;5.738;2023-02-18T04:52:19;41.42;;;22.65;;
61391;SDS011;47261;52.892;5.738;2023-02-18T04:54:45;52.13;;;21.33;;
61391;SDS011;47261;52.892;5.738;2023-02-18T04:57:11;58.65;;;20.35;;
61391;SDS011;47261;52.892;5.738;2023-02-18T04:59:37;37.30;;;18.20;;
61391;SDS011;47261;52.892;5.738;2023-02-18T05:02:03;45.13;;;18.77;;
61391;SDS011;47261;52.892;5.738;2023-02-18T05:04:29;43.53;;;18.98;;
61391;SDS011;47261;52.892;5.738;2023-02-18T05:06:54;46.57;;;17.80;;
61391;SDS011;47261;52.892;5.738;2023-02-18T05:09:20;39.47;;;18.05;;
61391;SDS011;47261;52.892;5.738;2023-02-18T05:11:46;38.43;;;18.50;;
61391;SDS011;47261;52.892;5.738;2023-02-18T05:14:11;37.08;;;16.40;;
61391;SDS011;47261;52.892;5.738;2023-02-18T05:16:38;54.47;;;19.20;;
61391;SDS011;47261;52.892;5.738;2023-02-18T05:19:04;31.05;;;14.85;;
61391;SDS011;47261;52.892;5.738;2023-02-18T05:21:29;62.40;;;18.20;;
61391;SDS011;47261;52.892;5.738;2023-02-18T05:23:55;33.55;;;14.73;;
61391;SDS011;47261;52.892;5.738;2023-02-18T05:26:21;35.93;;;16.37;;
61391;SDS011;47261;52.892;5.738;2023-02-18T05:28:47;51.92;;;17.05;;
61391;SDS011;47261;52.892;5.738;2023-02-18T05:31:12;35.47;;;13.10;;
61391;SDS011;47261;52.892;5.738;2023-02-18T05:33:38;29.23;;;13.50;;
61391;SDS011;47261;52.892;5.738;2023-02-18T05:36:04;29.67;;;12.38;;
61391;SDS011;47261;52.892;5.738;2023-02-18T05:38:30;39.85;;;12.02;;
61391;SDS011;47261;52.892;5.738;2023-02-18T05:40:55;67.27;;;15.50;;
61391;SDS011;47261;52.892;5.738;2023-02-18T05:43:21;23.03;;;8.40;;
61391;SDS011;47261;52.892;5.738;2023-02-18T05:45:46;28.25;;;7.53;;
61391;SDS011;47261;52.892;5.738;2023-02-18T05:48:12;24.00;;;8.83;;
61391;SDS011;47261;52.892;5.738;2023-02-18T05:50:38;12.57;;;7.45;;
61391;SDS011;47261;52.892;5.738;2023-02-18T05:53:03;14.50;;;6.03;;
61391;SDS011;47261;52.892;5.738;2023-02-18T05:55:29;14.47;;;6.53;;
61391;SDS011;47261;52.892;5.738;2023-02-18T05:57:54;17.75;;;7.80;;
61391;SDS011;47261;52.892;5.738;2023-02-18T06:00:20;14.67;;;7.63;;
61391;SDS011;47261;52.892;5.738;2023-02-18T06:02:46;29.73;;;9.90;;
61391;SDS011;47261;52.892;5.738;2023-02-18T06:05:12;18.80;;;7.93;;
61391;SDS011;47261;52.892;5.738;2023-02-18T06:07:37;28.83;;;11.30;;
61391;SDS011;47261;52.892;5.738;2023-02-18T06:10:03;21.33;;;9.67;;
61391;SDS011;47261;52.892;5.738;2023-02-18T06:12:30;29.10;;;11.13;;
61391;SDS011;47261;52.892;5.738;2023-02-18T06:14:56;49.22;;;15.02;;
61391;SDS011;47261;52.892;5.738;2023-02-18T06:17:21;82.60;;;21.77;;
61391;SDS011;47261;52.892;5.738;2023-02-18T06:19:47;35.25;;;12.07;;
61391;SDS011;47261;52.892;5.738;2023-02-18T06:22:13;67.27;;;19.07;;
61391;SDS011;47261;52.892;5.738;2023-02-18T06:24:39;78.50;;;18.73;;
61391;SDS011;47261;52.892;5.738;2023-02-18T06:27:05;93.45;;;24.55;;
61391;SDS011;47261;52.892;5.738;2023-02-18T06:29:31;57.20;;;16.03;;
61391;SDS011;47261;52.892;5.738;2023-02-18T06:31:57;59.50;;;19.17;;
61391;SDS011;47261;52.892;5.738;2023-02-18T06:34:23;67.43;;;19.83;;
61391;SDS011;47261;52.892;5.738;2023-02-18T06:36:49;36.85;;;12.38;;
61391;SDS011;47261;52.892;5.738;2023-02-18T06:39:15;41.87;;;13.50;;
61391;SDS011;47261;52.892;5.738;2023-02-18T06:41:41;39.58;;;13.98;;
61391;SDS011;47261;52.892;5.738;2023-02-18T06:44:06;58.07;;;16.20;;
61391;SDS011;47261;52.892;5.738;2023-02-18T06:46:32;47.30;;;14.50;;
61391;SDS011;47261;52.892;5.738;2023-02-18T06:48:58;42.90;;;13.07;;
61391;SDS011;47261;52.892;5.738;2023-02-18T06:51:24;44.20;;;13.13;;
61391;SDS011;47261;52.892;5.738;2023-02-18T06:53:49;32.20;;;11.37;;
61391;SDS011;47261;52.892;5.738;2023-02-18T06:56:15;31.17;;;9.65;;
61391;SDS011;47261;52.892;5.738;2023-02-18T06:58:41;33.72;;;10.93;;
61391;SDS011;47261;52.892;5.738;2023-02-18T07:01:07;26.33;;;9.30;;
61391;SDS011;47261;52.892;5.738;2023-02-18T07:03:33;31.25;;;10.85;;
61391;SDS011;47261;52.892;5.738;2023-02-18T07:05:58;32.90;;;10.47;;
61391;SDS011;47261;52.892;5.738;2023-02-18T07:08:24;34.25;;;10.50;;
61391;SDS011;47261;52.892;5.738;2023-02-18T07:10:50;33.15;;;9.68;;
61391;SDS011;47261;52.892;5.738;2023-02-18T07:13:16;37.63;;;8.73;;
61391;SDS011;47261;52.892;5.738;2023-02-18T07:15:42;22.35;;;7.65;;
61391;SDS011;47261;52.892;5.738;2023-02-18T07:18:07;16.00;;;5.50;;
61391;SDS011;47261;52.892;5.738;2023-02-18T07:20:33;20.23;;;5.65;;
61391;SDS011;47261;52.892;5.738;2023-02-18T07:22:59;20.27;;;5.60;;
61391;SDS011;47261;52.892;5.738;2023-02-18T07:25:25;22.27;;;5.82;;
61391;SDS011;47261;52.892;5.738;2023-02-18T07:27:51;19.73;;;6.37;;
61391;SDS011;47261;52.892;5.738;2023-02-18T07:30:17;16.73;;;4.23;;
61391;SDS011;47261;52.892;5.738;2023-02-18T07:32:43;15.65;;;4.50;;
61391;SDS011;47261;52.892;5.738;2023-02-18T07:35:09;22.83;;;5.68;;
61391;SDS011;47261;52.892;5.738;2023-02-18T07:37:43;22.07;;;4.87;;
61391;SDS011;47261;52.892;5.738;2023-02-18T07:40:13;15.35;;;4.20;;
61391;SDS011;47261;52.892;5.738;2023-02-18T07:42:41;15.65;;;5.07;;
61391;SDS011;47261;52.892;5.738;2023-02-18T07:45:06;17.97;;;4.80;;
61391;SDS011;47261;52.892;5.738;2023-02-18T07:47:32;20.70;;;6.05;;
61391;SDS011;47261;52.892;5.738;2023-02-18T07:49:58;20.70;;;5.47;;
61391;SDS011;47261;52.892;5.738;2023-02-18T07:52:24;20.63;;;5.13;;
61391;SDS011;47261;52.892;5.738;2023-02-18T07:54:49;15.77;;;4.63;;
61391;SDS011;47261;52.892;5.738;2023-02-18T07:57:15;18.87;;;5.00;;
61391;SDS011;47261;52.892;5.738;2023-02-18T07:59:42;15.20;;;5.15;;
61391;SDS011;47261;52.892;5.738;2023-02-18T08:02:10;15.67;;;4.40;;
61391;SDS011;47261;52.892;5.738;2023-02-18T08:04:43;11.05;;;3.95;;
61391;SDS011;47261;52.892;5.738;2023-02-18T08:07:12;15.20;;;4.33;;
61391;SDS011;47261;52.892;5.738;2023-02-18T08:09:39;14.55;;;4.15;;
61391;SDS011;47261;52.892;5.738;2023-02-18T08:12:05;17.00;;;4.97;;
61391;SDS011;47261;52.892;5.738;2023-02-18T08:14:31;13.48;;;4.60;;
61391;SDS011;47261;52.892;5.738;2023-02-18T08:16:57;12.63;;;3.87;;
61391;SDS011;47261;52.892;5.738;2023-02-18T08:19:22;12.27;;;4.47;;
61391;SDS011;47261;52.892;5.738;2023-02-18T08:21:48;21.53;;;5.07;;
61391;SDS011;47261;52.892;5.738;2023-02-18T08:24:14;16.95;;;4.70;;
61391;SDS011;47261;52.892;5.738;2023-02-18T08:26:39;15.37;;;3.50;;
61391;SDS011;47261;52.892;5.738;2023-02-18T08:29:05;16.70;;;4.50;;
61391;SDS011;47261;52.892;5.738;2023-02-18T08:31:31;14.10;;;3.93;;
61391;SDS011;47261;52.892;5.738;2023-02-18T08:33:57;17.67;;;4.07;;
61391;SDS011;47261;52.892;5.738;2023-02-18T08:36:24;15.07;;;4.13;;
61391;SDS011;47261;52.892;5.738;2023-02-18T08:38:51;14.02;;;3.33;;
61391;SDS011;47261;52.892;5.738;2023-02-18T08:41:17;13.43;;;3.77;;
61391;SDS011;47261;52.892;5.738;2023-02-18T08:43:43;15.70;;;4.18;;
61391;SDS011;47261;52.892;5.738;2023-02-18T08:46:09;14.85;;;2.90;;
61391;SDS011;47261;52.892;5.738;2023-02-18T08:48:35;14.98;;;3.20;;
61391;SDS011;47261;52.892;5.738;2023-02-18T08:51:17;15.90;;;3.60;;
61391;SDS011;47261;52.892;5.738;2023-02-18T08:53:44;20.70;;;3.50;;
61391;SDS011;47261;52.892;5.738;2023-02-18T08:56:11;13.40;;;2.95;;
61391;SDS011;47261;52.892;5.738;2023-02-18T08:58:38;14.52;;;3.08;;
61391;SDS011;47261;52.892;5.738;2023-02-18T09:01:06;16.13;;;2.37;;
61391;SDS011;47261;52.892;5.738;2023-02-18T09:03:34;15.82;;;2.85;;
61391;SDS011;47261;52.892;5.738;2023-02-18T09:06:00;15.70;;;2.47;;
61391;SDS011;47261;52.892;5.738;2023-02-18T09:08:26;16.00;;;2.05;;
61391;SDS011;47261;52.892;5.738;2023-02-18T09:10:59;16.85;;;2.08;;
61391;SDS011;47261;52.892;5.738;2023-02-18T09:13:28;14.73;;;2.07;;
61391;SDS011;47261;52.892;5.738;2023-02-18T09:16:04;17.92;;;2.00;;
61391;SDS011;47261;52.892;5.738;2023-02-18T09:18:35;12.02;;;1.67;;
61391;SDS011;47261;52.892;5.738;2023-02-18T09:21:01;12.27;;;1.73;;
61391;SDS011;47261;52.892;5.738;2023-02-18T09:23:29;12.70;;;1.75;;
61391;SDS011;47261;52.892;5.738;2023-02-18T09:25:55;17.77;;;2.00;;
61391;SDS011;47261;52.892;5.738;2023-02-18T09:28:22;14.30;;;1.40;;
61391;SDS011;47261;52.892;5.738;2023-02-18T09:30:48;12.02;;;1.25;;
61391;SDS011;47261;52.892;5.738;2023-02-18T09:33:14;12.20;;;1.67;;
61391;SDS011;47261;52.892;5.738;2023-02-18T09:35:44;17.02;;;2.17;;
61391;SDS011;47261;52.892;5.738;2023-02-18T09:38:11;18.52;;;2.00;;
61391;SDS011;47261;52.892;5.738;2023-02-18T09:40:39;16.20;;;1.95;;
61391;SDS011;47261;52.892;5.738;2023-02-18T09:46:01;13.30;;;1.33;;
61391;SDS011;47261;52.892;5.738;2023-02-18T09:48:30;17.70;;;1.50;;
61391;SDS011;47261;52.892;5.738;2023-02-18T09:50:57;9.75;;;1.30;;
61391;SDS011;47261;52.892;5.738;2023-02-18T09:53:24;14.60;;;2.45;;
61391;SDS011;47261;52.892;5.738;2023-02-18T09:55:53;12.93;;;1.50;;
61391;SDS011;47261;52.892;5.738;2023-02-18T09:58:22;10.85;;;1.42;;
61391;SDS011;47261;52.892;5.738;2023-02-18T10:00:58;15.60;;;1.70;;
61391;SDS011;47261;52.892;5.738;2023-02-18T10:03:34;21.80;;;2.45;;
61391;SDS011;47261;52.892;5.738;2023-02-18T10:08:33;15.30;;;2.00;;
61391;SDS011;47261;52.892;5.738;2023-02-18T10:11:01;10.65;;;1.73;;
61391;SDS011;47261;52.892;5.738;2023-02-18T10:13:29;15.38;;;1.83;;
61391;SDS011;47261;52.892;5.738;2023-02-18T10:15:57;17.60;;;1.85;;
61391;SDS011;47261;52.892;5.738;2023-02-18T10:18:24;14.05;;;1.52;;
61391;SDS011;47261;52.892;5.738;2023-02-18T10:20:57;15.97;;;1.83;;
61391;SDS011;47261;52.892;5.738;2023-02-18T10:23:30;18.75;;;2.53;;
61391;SDS011;47261;52.892;5.738;2023-02-18T10:25:59;13.82;;;2.10;;
61391;SDS011;47261;52.892;5.738;2023-02-18T10:28:28;20.90;;;2.30;;
61391;SDS011;47261;52.892;5.738;2023-02-18T10:30:57;15.93;;;1.77;;
61391;SDS011;47261;52.892;5.738;2023-02-18T10:41:33;14.15;;;1.65;;
61391;SDS011;47261;52.892;5.738;2023-02-18T10:44:18;13.45;;;2.22;;
61391;SDS011;47261;52.892;5.738;2023-02-18T10:46:51;12.00;;;1.70;;
61391;SDS011;47261;52.892;5.738;2023-02-18T10:52:17;13.27;;;1.85;;
61391;SDS011;47261;52.892;5.738;2023-02-18T10:55:03;13.82;;;2.13;;
61391;SDS011;47261;52.892;5.738;2023-02-18T10:57:31;13.70;;;1.80;;
61391;SDS011;47261;52.892;5.738;2023-02-18T11:00:02;14.70;;;2.50;;
61391;SDS011;47261;52.892;5.738;2023-02-18T11:02:37;16.10;;;2.08;;
61391;SDS011;47261;52.892;5.738;2023-02-18T11:08:02;13.85;;;2.15;;
61391;SDS011;47261;52.892;5.738;2023-02-18T11:10:34;17.63;;;2.22;;
61391;SDS011;47261;52.892;5.738;2023-02-18T11:13:05;18.67;;;2.10;;
61391;SDS011;47261;52.892;5.738;2023-02-18T11:15:32;18.90;;;1.90;;
61391;SDS011;47261;52.892;5.738;2023-02-18T11:18:23;10.88;;;1.63;;
61391;SDS011;47261;52.892;5.738;2023-02-18T11:20:58;8.23;;;1.50;;
61391;SDS011;47261;52.892;5.738;2023-02-18T11:23:26;15.10;;;2.53;;
61391;SDS011;47261;52.892;5.738;2023-02-18T11:26:02;17.23;;;1.90;;
61391;SDS011;47261;52.892;5.738;2023-02-18T11:28:50;13.27;;;2.40;;
61391;SDS011;47261;52.892;5.738;2023-02-18T11:31:23;18.83;;;2.63;;
61391;SDS011;47261;52.892;5.738;2023-02-18T11:33:58;17.35;;;2.20;;
61391;SDS011;47261;52.892;5.738;2023-02-18T11:36:28;14.10;;;1.88;;
61391;SDS011;47261;52.892;5.738;2023-02-18T11:39:05;18.50;;;2.90;;
61391;SDS011;47261;52.892;5.738;2023-02-18T11:41:44;17.25;;;2.08;;
61391;SDS011;47261;52.892;5.738;2023-02-18T11:44:17;20.95;;;2.72;;
61391;SDS011;47261;52.892;5.738;2023-02-18T11:46:56;14.05;;;2.28;;
61391;SDS011;47261;52.892;5.738;2023-02-18T11:49:30;10.60;;;2.30;;
61391;SDS011;47261;52.892;5.738;2023-02-18T11:54:38;12.77;;;2.10;;
61391;SDS011;47261;52.892;5.738;2023-02-18T11:57:05;9.48;;;1.65;;
61391;SDS011;47261;52.892;5.738;2023-02-18T11:59:36;11.47;;;1.80;;
61391;SDS011;47261;52.892;5.738;2023-02-18T12:04:36;14.32;;;1.67;;
61391;SDS011;47261;52.892;5.738;2023-02-18T12:07:23;9.38;;;1.83;;
61391;SDS011;47261;52.892;5.738;2023-02-18T12:09:58;20.23;;;2.45;;
61391;SDS011;47261;52.892;5.738;2023-02-18T12:12:31;9.10;;;2.00;;
61391;SDS011;47261;52.892;5.738;2023-02-18T12:15:15;13.52;;;1.95;;
61391;SDS011;47261;52.892;5.738;2023-02-18T12:17:54;13.65;;;2.00;;
61391;SDS011;47261;52.892;5.738;2023-02-18T12:20:39;14.10;;;1.95;;
61391;SDS011;47261;52.892;5.738;2023-02-18T12:23:26;13.68;;;2.30;;
61391;SDS011;47261;52.892;5.738;2023-02-18T12:26:20;9.90;;;2.10;;
61391;SDS011;47261;52.892;5.738;2023-02-18T12:34:44;14.00;;;2.33;;
61391;SDS011;47261;52.892;5.738;2023-02-18T12:40:21;13.47;;;1.73;;
61391;SDS011;47261;52.892;5.738;2023-02-18T12:55:39;8.70;;;1.73;;
61391;SDS011;47261;52.892;5.738;2023-02-18T13:00:58;12.00;;;2.35;;
61391;SDS011;47261;52.892;5.738;2023-02-18T13:06:46;13.48;;;1.73;;
61391;SDS011;47261;52.892;5.738;2023-02-18T13:09:52;12.70;;;1.83;;
61391;SDS011;47261;52.892;5.738;2023-02-18T13:12:37;13.63;;;2.50;;
61391;SDS011;47261;52.892;5.738;2023-02-18T13:17:46;12.48;;;1.50;;
61391;SDS011;47261;52.892;5.738;2023-02-18T13:20:20;9.15;;;1.88;;
61391;SDS011;47261;52.892;5.738;2023-02-18T13:22:53;11.63;;;1.90;;
61391;SDS011;47261;52.892;5.738;2023-02-18T13:25:20;9.50;;;1.83;;
61391;SDS011;47261;52.892;5.738;2023-02-18T13:30:30;10.90;;;1.83;;
61391;SDS011;47261;52.892;5.738;2023-02-18T13:35:33;10.10;;;1.43;;
61391;SDS011;47261;52.892;5.738;2023-02-18T13:40:56;9.02;;;1.38;;
61391;SDS011;47261;52.892;5.738;2023-02-18T13:48:33;12.50;;;2.17;;
61391;SDS011;47261;52.892;5.738;2023-02-18T13:51:03;8.40;;;1.98;;
61391;SDS011;47261;52.892;5.738;2023-02-18T13:53:31;11.93;;;2.08;;
61391;SDS011;47261;52.892;5.738;2023-02-18T13:56:02;11.37;;;2.03;;
61391;SDS011;47261;52.892;5.738;2023-02-18T13:59:11;13.85;;;1.90;;
61391;SDS011;47261;52.892;5.738;2023-02-18T14:04:32;10.55;;;1.70;;
61391;SDS011;47261;52.892;5.738;2023-02-18T14:07:36;19.00;;;2.22;;
61391;SDS011;47261;52.892;5.738;2023-02-18T14:09:56;11.57;;;1.80;;
61391;SDS011;47261;52.892;5.738;2023-02-18T14:14:54;10.02;;;1.40;;
61391;SDS011;47261;52.892;5.738;2023-02-18T14:19:55;14.80;;;1.63;;
61391;SDS011;47261;52.892;5.738;2023-02-18T14:22:45;12.55;;;2.42;;
61391;SDS011;47261;52.892;5.738;2023-02-18T14:27:40;12.60;;;1.77;;
61391;SDS011;47261;52.892;5.738;2023-02-18T14:30:28;13.70;;;2.30;;
61391;SDS011;47261;52.892;5.738;2023-02-18T14:33:02;11.60;;;1.83;;
61391;SDS011;47261;52.892;5.738;2023-02-18T14:38:10;13.48;;;1.85;;
61391;SDS011;47261;52.892;5.738;2023-02-18T14:41:41;9.00;;;1.60;;
61391;SDS011;47261;52.892;5.738;2023-02-18T14:46:27;13.50;;;1.80;;
61391;SDS011;47261;52.892;5.738;2023-02-18T14:49:35;16.80;;;2.25;;
61391;SDS011;47261;52.892;5.738;2023-02-18T14:52:05;11.40;;;1.95;;
61391;SDS011;47261;52.892;5.738;2023-02-18T14:54:36;8.00;;;1.77;;
61391;SDS011;47261;52.892;5.738;2023-02-18T14:57:10;12.20;;;1.67;;
61391;SDS011;47261;52.892;5.738;2023-02-18T14:59:41;10.30;;;1.40;;
61391;SDS011;47261;52.892;5.738;2023-02-18T15:02:13;7.88;;;0.88;;
61391;SDS011;47261;52.892;5.738;2023-02-18T15:04:51;12.52;;;1.60;;
61391;SDS011;47261;52.892;5.738;2023-02-18T15:07:21;7.43;;;0.87;;
61391;SDS011;47261;52.892;5.738;2023-02-18T15:09:55;8.93;;;0.85;;
61391;SDS011;47261;52.892;5.738;2023-02-18T15:12:22;10.05;;;1.20;;
61391;SDS011;47261;52.892;5.738;2023-02-18T15:14:50;9.73;;;1.27;;
61391;SDS011;47261;52.892;5.738;2023-02-18T15:17:22;9.07;;;1.25;;
61391;SDS011;47261;52.892;5.738;2023-02-18T15:19:52;16.27;;;1.50;;
61391;SDS011;47261;52.892;5.738;2023-02-18T15:22:24;11.07;;;1.80;;
61391;SDS011;47261;52.892;5.738;2023-02-18T15:24:52;9.85;;;1.60;;
61391;SDS011;47261;52.892;5.738;2023-02-18T15:27:20;8.10;;;1.63;;
61391;SDS011;47261;52.892;5.738;2023-02-18T15:30:24;10.27;;;0.90;;
61391;SDS011;47261;52.892;5.738;2023-02-18T15:32:57;14.10;;;1.87;;
61391;SDS011;47261;52.892;5.738;2023-02-18T15:35:31;9.00;;;1.60;;
61391;SDS011;47261;52.892;5.738;2023-02-18T15:37:57;9.10;;;1.60;;
61391;SDS011;47261;52.892;5.738;2023-02-18T15:40:26;10.57;;;1.33;;
61391;SDS011;47261;52.892;5.738;2023-02-18T15:42:59;9.80;;;1.27;;
61391;SDS011;47261;52.892;5.738;2023-02-18T15:45:38;7.57;;;1.20;;
61391;SDS011;47261;52.892;5.738;2023-02-18T15:48:06;8.85;;;1.02;;
61391;SDS011;47261;52.892;5.738;2023-02-18T15:50:53;14.25;;;1.42;;
61391;SDS011;47261;52.892;5.738;2023-02-18T15:53:26;7.20;;;0.68;;
61391;SDS011;47261;52.892;5.738;2023-02-18T15:55:52;10.47;;;1.17;;
61391;SDS011;47261;52.892;5.738;2023-02-18T15:58:23;18.50;;;1.67;;
61391;SDS011;47261;52.892;5.738;2023-02-18T16:00:54;9.18;;;1.27;;
61391;SDS011;47261;52.892;5.738;2023-02-18T16:03:30;11.07;;;1.27;;
61391;SDS011;47261;52.892;5.738;2023-02-18T16:08:45;8.95;;;1.02;;
61391;SDS011;47261;52.892;5.738;2023-02-18T16:11:42;8.03;;;1.10;;
61391;SDS011;47261;52.892;5.738;2023-02-18T16:19:50;10.75;;;1.27;;
61391;SDS011;47261;52.892;5.738;2023-02-18T16:27:37;6.25;;;1.17;;
61391;SDS011;47261;52.892;5.738;2023-02-18T16:30:23;8.13;;;1.00;;
61391;SDS011;47261;52.892;5.738;2023-02-18T16:32:51;11.05;;;1.50;;
61391;SDS011;47261;52.892;5.738;2023-02-18T16:35:16;18.17;;;1.13;;
61391;SDS011;47261;52.892;5.738;2023-02-18T16:37:42;9.63;;;1.10;;
61391;SDS011;47261;52.892;5.738;2023-02-18T16:40:29;11.05;;;1.15;;
61391;SDS011;47261;52.892;5.738;2023-02-18T16:42:56;11.15;;;1.55;;
61391;SDS011;47261;52.892;5.738;2023-02-18T16:45:34;21.13;;;1.60;;
61391;SDS011;47261;52.892;5.738;2023-02-18T16:48:02;8.30;;;0.98;;
61391;SDS011;47261;52.892;5.738;2023-02-18T16:50:29;7.35;;;0.93;;
61391;SDS011;47261;52.892;5.738;2023-02-18T16:52:56;6.57;;;0.90;;
61391;SDS011;47261;52.892;5.738;2023-02-18T16:55:23;11.05;;;1.05;;
61391;SDS011;47261;52.892;5.738;2023-02-18T16:57:50;8.40;;;0.90;;
61391;SDS011;47261;52.892;5.738;2023-02-18T17:00:16;14.63;;;1.30;;
61391;SDS011;47261;52.892;5.738;2023-02-18T17:02:43;12.18;;;1.20;;
61391;SDS011;47261;52.892;5.738;2023-02-18T17:05:18;8.70;;;1.03;;
61391;SDS011;47261;52.892;5.738;2023-02-18T17:07:45;13.25;;;1.55;;